createdAt,value
2018-03-14T00:01:04.404Z,94.24
2018-03-14T00:03:31.892Z,94.40
2018-03-14T00:05:59.399Z,94.06
2018-03-14T00:08:26.867Z,94.13
2018-03-14T00:10:54.393Z,94.25
2018-03-14T00:13:21.883Z,93.67
2018-03-14T00:15:49.378Z,93.56
2018-03-14T00:18:16.870Z,93.64
2018-03-14T00:20:44.395Z,93.85
2018-03-14T00:23:11.875Z,93.74
2018-03-14T00:25:39.379Z,93.54
2018-03-14T00:28:06.855Z,92.67
2018-03-14T00:30:34.365Z,92.61
2018-03-14T00:33:01.838Z,92.78
2018-03-14T00:35:29.342Z,92.46
2018-03-14T00:37:56.831Z,92.75
2018-03-14T00:40:24.379Z,92.66
2018-03-14T00:42:51.804Z,92.54
2018-03-14T00:45:19.308Z,92.40
2018-03-14T00:47:46.783Z,92.40
2018-03-14T00:50:14.280Z,92.87
2018-03-14T00:52:41.777Z,93.24
2018-03-14T00:55:09.296Z,92.78
2018-03-14T00:57:36.775Z,91.76
2018-03-14T01:00:04.256Z,90.95
2018-03-14T01:02:31.747Z,91.02
2018-03-14T01:04:59.332Z,91.07
2018-03-14T01:07:26.832Z,90.84
2018-03-14T01:09:54.321Z,89.93
2018-03-14T01:12:21.811Z,89.45
2018-03-14T01:14:49.288Z,89.79
2018-03-14T01:17:16.790Z,89.05
2018-03-14T01:19:44.276Z,89.65
2018-03-14T01:22:11.782Z,90.11
2018-03-14T01:24:39.272Z,90.16
2018-03-14T01:27:06.754Z,89.48
2018-03-14T01:29:34.236Z,89.18
2018-03-14T01:32:01.739Z,89.49
2018-03-14T01:34:29.268Z,88.89
2018-03-14T01:36:56.715Z,89.60
2018-03-14T01:39:24.205Z,89.57
2018-03-14T01:41:51.713Z,90.24
2018-03-14T01:44:19.219Z,89.98
2018-03-14T01:46:46.743Z,89.33
2018-03-14T01:49:14.219Z,89.48
2018-03-14T01:51:41.723Z,89.60
2018-03-14T01:54:09.202Z,89.76
2018-03-14T01:56:36.712Z,90.05
2018-03-14T01:59:04.193Z,89.71
2018-03-14T02:01:32.471Z,89.61
2018-03-14T02:03:59.956Z,90.46
2018-03-14T02:06:27.451Z,90.64
2018-03-14T02:08:54.942Z,90.83
2018-03-14T02:11:22.446Z,91.26
2018-03-14T02:13:49.950Z,91.05
2018-03-14T02:16:17.453Z,90.42
2018-03-14T02:18:44.939Z,90.06
2018-03-14T02:21:12.432Z,90.50
2018-03-14T02:23:39.930Z,89.52
2018-03-14T02:26:07.411Z,89.58
2018-03-14T02:28:34.926Z,89.03
2018-03-14T02:31:02.410Z,88.98
2018-03-14T02:33:30.139Z,88.96
2018-03-14T02:35:57.619Z,88.94
2018-03-14T02:38:25.119Z,89.05
2018-03-14T02:40:52.608Z,88.71
2018-03-14T02:43:20.111Z,88.94
2018-03-14T02:45:47.598Z,89.13
2018-03-14T02:48:15.410Z,89.37
2018-03-14T02:50:42.871Z,89.49
2018-03-14T02:53:10.365Z,89.72
2018-03-14T02:55:37.835Z,90.08
2018-03-14T02:58:05.319Z,90.46
2018-03-14T03:00:32.788Z,90.38
2018-03-14T03:03:00.270Z,90.66
2018-03-14T03:05:27.730Z,90.76
2018-03-14T03:07:55.208Z,90.11
2018-03-14T03:10:22.734Z,90.25
2018-03-14T03:12:50.239Z,90.82
2018-03-14T03:15:17.664Z,91.57
2018-03-14T03:17:45.140Z,91.76
2018-03-14T03:20:12.603Z,92.21
2018-03-14T03:22:40.078Z,92.62
2018-03-14T03:25:07.535Z,93.10
2018-03-14T03:27:35.025Z,93.45
2018-03-14T03:30:02.493Z,93.69
2018-03-14T03:32:29.987Z,93.87
2018-03-14T03:34:57.448Z,93.97
2018-03-14T03:37:24.930Z,94.20
2018-03-14T03:39:52.407Z,94.06
2018-03-14T03:42:19.935Z,94.04
2018-03-14T03:44:47.400Z,94.16
2018-03-14T03:47:14.873Z,94.28
2018-03-14T03:49:42.352Z,94.41
2018-03-14T03:52:09.821Z,94.50
2018-03-14T03:54:37.363Z,94.51
2018-03-14T03:57:04.830Z,94.63
2018-03-14T03:59:32.308Z,95.26
2018-03-14T04:01:59.791Z,94.89
2018-03-14T04:04:27.279Z,94.25
2018-03-14T04:06:54.741Z,93.88
2018-03-14T04:09:22.225Z,93.74
2018-03-14T04:11:49.695Z,93.66
2018-03-14T04:14:17.186Z,93.69
2018-03-14T04:16:44.655Z,93.72
2018-03-14T04:19:12.140Z,93.13
2018-03-14T04:21:39.611Z,92.98
2018-03-14T04:24:07.094Z,92.70
2018-03-14T04:26:34.551Z,92.44
2018-03-14T04:29:02.059Z,92.41
2018-03-14T04:31:29.575Z,92.59
2018-03-14T04:33:57.019Z,92.12
2018-03-14T04:36:24.499Z,91.28
2018-03-14T04:38:51.982Z,90.93
2018-03-14T04:41:19.485Z,90.91
2018-03-14T04:43:46.967Z,90.38
2018-03-14T04:46:14.434Z,89.46
2018-03-14T04:48:41.914Z,89.35
2018-03-14T04:51:09.371Z,90.02
2018-03-14T04:53:36.851Z,90.65
2018-03-14T04:56:04.311Z,91.09
2018-03-14T04:58:31.805Z,91.00
2018-03-14T05:00:59.575Z,91.44
2018-03-14T05:03:27.041Z,91.58
2018-03-14T05:05:54.539Z,91.88
2018-03-14T05:08:22.006Z,92.23
2018-03-14T05:10:49.496Z,92.58
2018-03-14T05:13:16.971Z,92.55
2018-03-14T05:15:44.455Z,92.68
2018-03-14T05:18:11.920Z,92.82
2018-03-14T05:20:39.399Z,93.39
2018-03-14T05:23:06.855Z,93.73
2018-03-14T05:25:34.331Z,93.75
2018-03-14T05:28:02.560Z,93.92
2018-03-14T05:30:30.047Z,93.86
2018-03-14T05:32:57.528Z,94.05
2018-03-14T05:35:25.006Z,94.38
2018-03-14T05:37:52.467Z,94.44
2018-03-14T05:40:19.975Z,94.82
2018-03-14T05:42:47.431Z,94.86
2018-03-14T05:45:14.919Z,94.92
2018-03-14T05:47:42.380Z,95.09
2018-03-14T05:50:09.885Z,95.44
2018-03-14T05:52:37.938Z,95.72
2018-03-14T05:55:05.418Z,95.79
2018-03-14T05:57:32.878Z,95.79
2018-03-14T06:00:00.357Z,95.86
2018-03-14T06:02:27.843Z,95.91
2018-03-14T06:04:55.343Z,96.07
2018-03-14T06:07:22.898Z,96.34
2018-03-14T06:09:50.385Z,96.37
2018-03-14T06:12:17.855Z,96.13
2018-03-14T06:14:45.610Z,96.03
2018-03-14T06:17:13.112Z,95.98
2018-03-14T06:19:40.642Z,95.75
2018-03-14T06:22:08.133Z,95.54
2018-03-14T06:24:35.612Z,95.38
2018-03-14T06:27:03.399Z,95.30
2018-03-14T06:29:30.861Z,95.30
2018-03-14T06:31:58.403Z,95.41
2018-03-14T06:34:25.865Z,95.50
2018-03-14T06:36:53.351Z,95.68
2018-03-14T06:39:20.817Z,95.87
2018-03-14T06:41:48.303Z,95.90
2018-03-14T06:44:15.770Z,95.89
2018-03-14T06:46:43.257Z,95.90
2018-03-14T06:49:10.721Z,95.93
2018-03-14T06:51:38.207Z,95.87
2018-03-14T06:54:05.672Z,95.85
2018-03-14T06:56:33.203Z,95.91
2018-03-14T06:59:12.576Z,95.85
2018-03-14T07:01:51.975Z,95.60
2018-03-14T07:04:31.267Z,95.40
2018-03-14T07:06:58.749Z,95.46
2018-03-14T07:09:26.211Z,95.25
2018-03-14T07:11:53.711Z,95.06
2018-03-14T07:14:21.182Z,94.91
2018-03-14T07:16:48.659Z,94.20
2018-03-14T07:19:16.115Z,93.79
2018-03-14T07:21:43.620Z,93.46
2018-03-14T07:24:11.083Z,93.12
2018-03-14T07:26:38.573Z,92.55
2018-03-14T07:29:06.069Z,92.42
2018-03-14T07:31:33.563Z,92.46
2018-03-14T07:34:01.034Z,92.25
2018-03-14T07:36:28.514Z,91.98
2018-03-14T07:38:55.987Z,91.85
2018-03-14T07:41:23.470Z,91.74
2018-03-14T07:43:50.962Z,91.45
2018-03-14T07:46:18.444Z,91.18
2018-03-14T07:48:45.914Z,90.76
2018-03-14T07:51:13.416Z,90.58
2018-03-14T07:53:40.901Z,90.64
2018-03-14T07:56:08.363Z,90.70
2018-03-14T07:58:35.863Z,90.52
2018-03-14T08:01:04.106Z,90.19
2018-03-14T08:03:38.133Z,89.66
2018-03-14T08:06:05.604Z,89.37
2018-03-14T08:08:33.096Z,88.67
2018-03-14T08:11:00.560Z,88.24
2018-03-14T08:13:28.084Z,87.89
2018-03-14T08:15:55.515Z,87.36
2018-03-14T08:18:23.005Z,86.80
2018-03-14T08:20:50.477Z,86.57
2018-03-14T08:23:17.954Z,85.40
2018-03-14T08:25:45.426Z,86.67
2018-03-14T08:28:12.904Z,86.95
2018-03-14T08:30:40.363Z,86.09
2018-03-14T08:33:07.873Z,84.48
2018-03-14T08:35:35.406Z,82.98
2018-03-14T08:38:02.891Z,83.71
2018-03-14T08:40:30.358Z,83.68
2018-03-14T08:42:57.854Z,83.39
2018-03-14T08:45:25.321Z,83.28
2018-03-14T08:47:52.804Z,82.33
2018-03-14T08:50:20.291Z,82.63
2018-03-14T08:52:47.766Z,83.19
2018-03-14T08:55:15.235Z,82.99
2018-03-14T08:57:42.727Z,81.96
2018-03-14T09:00:10.189Z,81.91
2018-03-14T09:02:37.691Z,81.93
2018-03-14T09:05:05.163Z,82.43
2018-03-14T09:07:32.650Z,83.87
2018-03-14T09:10:00.576Z,81.10
2018-03-14T09:12:28.035Z,82.21
2018-03-14T09:14:55.496Z,81.74
2018-03-14T09:17:22.990Z,81.33
2018-03-14T09:19:50.447Z,83.08
2018-03-14T09:22:17.907Z,82.90
2018-03-14T09:24:45.407Z,82.14
2018-03-14T09:27:12.876Z,80.31
2018-03-14T09:29:40.365Z,80.96
2018-03-14T09:32:07.822Z,79.12
2018-03-14T09:34:35.295Z,80.61
2018-03-14T09:37:02.792Z,80.25
2018-03-14T09:39:30.266Z,78.88
2018-03-14T09:41:57.729Z,78.69
2018-03-14T09:44:25.216Z,76.92
2018-03-14T09:46:52.675Z,75.98
2018-03-14T09:49:20.155Z,79.08
2018-03-14T09:51:47.644Z,78.59
2018-03-14T09:54:15.127Z,78.25
2018-03-14T09:56:42.587Z,77.91
2018-03-14T09:59:10.067Z,77.02
2018-03-14T10:01:37.579Z,76.60
2018-03-14T10:04:05.071Z,79.65
2018-03-14T10:06:32.535Z,78.37
2018-03-14T10:09:00.019Z,75.52
2018-03-14T10:11:27.580Z,78.97
2018-03-14T10:13:55.062Z,77.54
2018-03-14T10:16:22.519Z,75.76
2018-03-14T10:18:51.005Z,76.21
2018-03-14T10:21:18.480Z,77.42
2018-03-14T10:23:45.966Z,77.08
2018-03-14T10:26:13.451Z,76.23
2018-03-14T10:28:40.937Z,76.21
2018-03-14T10:31:08.426Z,77.01
2018-03-14T10:33:35.914Z,77.68
2018-03-14T10:36:03.384Z,76.76
2018-03-14T10:38:30.919Z,76.84
2018-03-14T10:40:58.383Z,74.52
2018-03-14T10:43:25.871Z,76.45
2018-03-14T10:45:53.327Z,76.58
2018-03-14T10:48:20.783Z,75.65
2018-03-14T10:50:48.274Z,74.53
2018-03-14T10:53:15.740Z,74.25
2018-03-14T10:55:43.219Z,72.03
2018-03-14T10:58:10.679Z,73.39
2018-03-14T11:00:43.628Z,74.34
2018-03-14T11:03:16.592Z,74.43
2018-03-14T11:05:44.079Z,73.29
2018-03-14T11:08:11.540Z,69.74
2018-03-14T11:10:39.028Z,71.17
2018-03-14T11:13:06.507Z,70.29
2018-03-14T11:15:34.014Z,70.59
2018-03-14T11:18:01.504Z,69.51
2018-03-14T11:20:28.994Z,69.01
2018-03-14T11:22:56.468Z,67.37
2018-03-14T11:25:23.961Z,68.20
2018-03-14T11:27:51.439Z,65.59
2018-03-14T11:30:18.946Z,68.92
2018-03-14T11:32:46.435Z,67.28
2018-03-14T11:35:13.967Z,66.61
2018-03-14T11:37:41.468Z,66.02
2018-03-14T11:40:08.984Z,64.05
2018-03-14T11:42:36.461Z,67.64
2018-03-14T11:45:03.943Z,64.71
2018-03-14T11:47:31.407Z,62.24
2018-03-14T11:49:58.907Z,63.53
2018-03-14T11:52:26.373Z,64.59
2018-03-14T11:54:53.855Z,63.49
2018-03-14T11:57:21.373Z,63.61
2018-03-14T11:59:48.849Z,63.42
2018-03-14T12:02:16.310Z,64.08
2018-03-14T12:04:43.797Z,64.48
2018-03-14T12:07:11.264Z,62.21
2018-03-14T12:09:38.741Z,63.32
2018-03-14T12:12:06.211Z,62.78
2018-03-14T12:14:33.718Z,63.56
2018-03-14T12:17:01.200Z,62.98
2018-03-14T12:19:28.675Z,64.02
2018-03-14T12:21:56.164Z,62.34
2018-03-14T12:24:23.627Z,62.29
2018-03-14T12:26:51.123Z,61.48
2018-03-14T12:29:18.582Z,60.75
2018-03-14T12:31:46.775Z,60.82
2018-03-14T12:34:14.235Z,58.36
2018-03-14T12:36:41.715Z,58.89
2018-03-14T12:39:09.195Z,57.95
2018-03-14T12:41:36.679Z,59.28
2018-03-14T12:44:04.134Z,60.11
2018-03-14T12:46:31.623Z,58.55
2018-03-14T12:48:59.087Z,56.07
2018-03-14T12:51:26.567Z,56.62
2018-03-14T12:53:54.025Z,55.56
2018-03-14T12:56:21.506Z,55.35
2018-03-14T12:58:48.967Z,55.25
2018-03-14T13:01:16.452Z,55.58
2018-03-14T13:03:43.915Z,56.38
2018-03-14T13:06:11.400Z,57.23
2018-03-14T13:08:38.864Z,55.97
2018-03-14T13:11:06.345Z,55.18
2018-03-14T13:13:33.797Z,54.08
2018-03-14T13:16:01.271Z,52.59
2018-03-14T13:18:28.732Z,52.30
2018-03-14T13:20:56.206Z,49.96
2018-03-14T13:23:23.688Z,50.63
2018-03-14T13:25:51.158Z,49.61
2018-03-14T13:28:18.614Z,49.18
2018-03-14T13:30:46.103Z,46.68
2018-03-14T13:33:13.555Z,42.89
2018-03-14T13:35:41.039Z,42.55
2018-03-14T13:38:08.500Z,40.51
2018-03-14T13:40:36.004Z,38.82
2018-03-14T13:43:03.468Z,36.71
2018-03-14T13:45:30.935Z,34.28
2018-03-14T13:47:58.405Z,35.26
2018-03-14T13:50:25.868Z,34.97
2018-03-14T13:52:53.361Z,33.13
2018-03-14T13:55:20.839Z,34.82
2018-03-14T13:57:48.318Z,35.26
2018-03-14T14:00:15.787Z,36.74
2018-03-14T14:02:43.251Z,39.14
2018-03-14T14:05:10.712Z,38.95
2018-03-14T14:07:38.191Z,39.09
2018-03-14T14:10:05.655Z,36.64
2018-03-14T14:12:33.154Z,33.81
2018-03-14T14:15:00.611Z,35.90
2018-03-14T14:17:28.105Z,35.80
2018-03-14T14:19:55.568Z,38.01
2018-03-14T14:22:23.049Z,35.36
2018-03-14T14:24:50.528Z,33.42
2018-03-14T14:27:18.936Z,33.02
2018-03-14T14:29:46.400Z,34.00
2018-03-14T14:32:13.871Z,33.24
2018-03-14T14:34:41.344Z,35.08
2018-03-14T14:37:08.820Z,39.28
2018-03-14T14:39:36.284Z,43.40
2018-03-14T14:42:03.764Z,45.66
2018-03-14T14:44:31.231Z,43.88
2018-03-14T14:46:59.704Z,45.67
2018-03-14T14:49:27.201Z,45.76
2018-03-14T14:51:54.680Z,47.07
2018-03-14T14:54:22.144Z,45.21
2018-03-14T14:56:49.623Z,43.43
2018-03-14T14:59:17.080Z,42.60
2018-03-14T15:01:44.555Z,41.93
2018-03-14T15:04:12.051Z,46.28
2018-03-14T15:06:39.498Z,48.01
2018-03-14T15:09:06.984Z,42.68
2018-03-14T15:11:34.451Z,40.47
2018-03-14T15:14:01.920Z,43.83
2018-03-14T15:16:29.386Z,44.28
2018-03-14T15:18:56.865Z,44.71
2018-03-14T15:21:24.399Z,48.11
2018-03-14T15:23:51.828Z,48.33
2018-03-14T15:26:19.288Z,43.28
2018-03-14T15:28:47.336Z,39.02
2018-03-14T15:31:14.807Z,37.41
2018-03-14T15:33:42.288Z,43.50
2018-03-14T15:36:09.748Z,47.39
2018-03-14T15:38:37.223Z,47.36
2018-03-14T15:41:04.691Z,50.24
2018-03-14T15:43:32.182Z,50.68
2018-03-14T15:45:59.640Z,51.62
2018-03-14T15:48:27.131Z,54.34
2018-03-14T15:50:54.591Z,53.92
2018-03-14T15:53:22.074Z,56.60
2018-03-14T15:55:49.536Z,58.39
2018-03-14T15:58:17.006Z,58.01
2018-03-14T16:00:44.476Z,59.09
2018-03-14T16:03:11.956Z,58.72
2018-03-14T16:05:39.430Z,59.28
2018-03-14T16:08:07.229Z,57.24
2018-03-14T16:10:34.688Z,57.66
2018-03-14T16:13:02.179Z,59.82
2018-03-14T16:15:29.660Z,58.06
2018-03-14T16:17:57.175Z,57.95
2018-03-14T16:20:24.683Z,59.01
2018-03-14T16:22:52.167Z,59.43
2018-03-14T16:25:19.629Z,59.40
2018-03-14T16:27:47.120Z,59.03
2018-03-14T16:30:14.607Z,58.10
2018-03-14T16:32:42.070Z,58.92
2018-03-14T16:35:09.551Z,59.21
2018-03-14T16:37:37.008Z,58.57
2018-03-14T16:40:04.495Z,58.80
2018-03-14T16:42:31.964Z,60.33
2018-03-14T16:44:59.451Z,60.77
2018-03-14T16:47:26.911Z,60.17
2018-03-14T16:49:54.398Z,59.01
2018-03-14T16:52:21.864Z,59.59
2018-03-14T16:54:49.343Z,59.02
2018-03-14T16:57:16.808Z,59.40
2018-03-14T16:59:44.288Z,59.81
2018-03-14T17:02:11.747Z,61.21
2018-03-14T17:04:39.627Z,63.01
2018-03-14T17:07:07.082Z,64.51
2018-03-14T17:09:34.551Z,64.96
2018-03-14T17:12:02.010Z,65.25
2018-03-14T17:14:30.265Z,66.02
2018-03-14T17:16:57.731Z,66.71
2018-03-14T17:19:25.203Z,67.38
2018-03-14T17:21:52.655Z,68.36
2018-03-14T17:24:20.127Z,68.97
2018-03-14T17:26:47.575Z,69.34
2018-03-14T17:29:15.139Z,69.69
2018-03-14T17:31:42.619Z,70.23
2018-03-14T17:34:10.096Z,71.09
2018-03-14T17:36:37.558Z,71.71
2018-03-14T17:39:05.039Z,72.33
2018-03-14T17:41:32.980Z,72.70
2018-03-14T17:44:00.451Z,72.85
2018-03-14T17:46:27.926Z,73.25
2018-03-14T17:48:55.503Z,73.75
2018-03-14T17:51:22.982Z,73.86
2018-03-14T17:53:50.459Z,74.13
2018-03-14T17:56:17.949Z,74.87
2018-03-14T17:58:45.410Z,75.22
2018-03-14T18:01:12.900Z,75.49
2018-03-14T18:03:40.364Z,76.02
2018-03-14T18:06:07.891Z,76.31
2018-03-14T18:08:35.343Z,76.66
2018-03-14T18:11:02.822Z,77.26
2018-03-14T18:13:30.280Z,77.12
2018-03-14T18:15:57.761Z,77.23
2018-03-14T18:18:25.213Z,77.32
2018-03-14T18:20:52.688Z,77.38
2018-03-14T18:23:20.365Z,77.36
2018-03-14T18:25:47.848Z,77.46
2018-03-14T18:28:15.301Z,77.12
2018-03-14T18:30:42.787Z,76.98
2018-03-14T18:33:10.243Z,77.11
2018-03-14T18:35:37.711Z,76.88
2018-03-14T18:38:05.168Z,77.05
2018-03-14T18:40:32.645Z,77.79
2018-03-14T18:43:00.101Z,78.01
2018-03-14T18:45:27.570Z,78.70
2018-03-14T18:47:55.019Z,78.44
2018-03-14T18:50:22.491Z,78.03
2018-03-14T18:52:49.946Z,78.11
2018-03-14T18:55:17.420Z,77.94
2018-03-14T18:57:44.867Z,78.20
2018-03-14T19:00:12.343Z,78.44
2018-03-14T19:02:39.795Z,78.35
2018-03-14T19:05:07.259Z,78.13
2018-03-14T19:07:34.716Z,78.01
2018-03-14T19:10:02.184Z,77.93
2018-03-14T19:12:29.659Z,77.84
2018-03-14T19:14:57.161Z,77.99
2018-03-14T19:17:24.611Z,78.13
2018-03-14T19:19:52.071Z,78.01
2018-03-14T19:22:19.563Z,78.43
2018-03-14T19:24:47.022Z,78.56
2018-03-14T19:27:14.556Z,78.44
2018-03-14T19:29:42.011Z,78.71
2018-03-14T19:32:09.803Z,79.13
2018-03-14T19:34:37.282Z,79.08
2018-03-14T19:37:04.756Z,78.82
2018-03-14T19:39:32.212Z,78.97
2018-03-14T19:41:59.804Z,79.06
2018-03-14T19:44:27.247Z,79.22
2018-03-14T19:46:54.734Z,79.39
2018-03-14T19:49:22.179Z,79.58
2018-03-14T19:51:49.647Z,79.65
2018-03-14T19:54:17.105Z,79.69
2018-03-14T19:56:45.832Z,79.52
2018-03-14T19:59:13.292Z,79.50
2018-03-14T20:01:40.959Z,79.60
2018-03-14T20:04:14.435Z,79.80
2018-03-14T20:06:41.908Z,79.81
2018-03-14T20:09:14.378Z,80.10
2018-03-14T20:14:48.118Z,80.61
2018-03-14T20:19:53.064Z,81.21
2018-03-14T20:22:27.526Z,81.30
2018-03-14T20:24:54.998Z,81.36
2018-03-14T20:27:25.308Z,81.72
2018-03-14T20:29:53.944Z,82.05
2018-03-14T20:32:24.130Z,82.34
2018-03-14T20:37:32.885Z,82.70
2018-03-14T20:40:00.378Z,82.79
2018-03-14T20:42:29.140Z,83.11
2018-03-14T20:45:01.103Z,83.28
2018-03-14T20:47:29.403Z,83.62
2018-03-14T20:49:59.897Z,83.97
2018-03-14T20:52:29.726Z,84.08
2018-03-14T20:55:01.461Z,84.15
2018-03-14T20:57:28.965Z,84.13
2018-03-14T21:00:00.996Z,84.14
2018-03-14T21:05:03.705Z,84.45
2018-03-14T21:07:32.487Z,84.75
2018-03-14T21:10:05.934Z,84.78
2018-03-14T21:12:33.555Z,84.61
2018-03-14T21:15:01.896Z,84.26
2018-03-14T21:17:33.580Z,84.15
2018-03-14T21:22:36.225Z,84.02
2018-03-14T21:25:04.530Z,84.08
2018-03-14T21:27:33.175Z,83.99
2018-03-14T21:30:03.035Z,83.82
2018-03-14T21:32:35.332Z,83.75
2018-03-14T21:37:37.206Z,84.11
2018-03-14T21:40:04.840Z,84.40
2018-03-14T21:42:32.340Z,84.50
2018-03-14T21:44:59.842Z,84.63
2018-03-14T21:47:27.327Z,84.73
2018-03-14T21:49:54.800Z,84.53
2018-03-14T21:52:22.312Z,84.51
2018-03-14T21:54:49.783Z,84.51
2018-03-14T21:57:18.679Z,84.53
2018-03-14T21:59:46.138Z,84.57
2018-03-14T22:02:13.657Z,84.60
2018-03-14T22:04:41.093Z,84.69
2018-03-14T22:07:08.551Z,84.81
2018-03-14T22:09:36.031Z,85.02
2018-03-14T22:12:03.513Z,85.26
2018-03-14T22:14:31.116Z,85.47
2018-03-14T22:16:58.491Z,85.57
2018-03-14T22:19:25.977Z,85.74
2018-03-14T22:21:53.443Z,85.87
2018-03-14T22:24:20.932Z,85.91
2018-03-14T22:26:48.411Z,86.04
2018-03-14T22:29:15.892Z,86.15
2018-03-14T22:31:43.359Z,86.18
2018-03-14T22:34:10.850Z,86.22
2018-03-14T22:36:38.306Z,86.29
2018-03-14T22:39:05.788Z,86.48
2018-03-14T22:41:33.254Z,86.63
2018-03-14T22:44:00.735Z,86.85
2018-03-14T22:46:28.202Z,86.89
2018-03-14T22:48:55.690Z,86.66
2018-03-14T22:51:23.151Z,86.49
2018-03-14T22:53:50.631Z,86.24
2018-03-14T22:56:18.099Z,86.06
2018-03-14T22:58:45.605Z,85.84
2018-03-14T23:01:13.068Z,85.35
2018-03-14T23:03:40.550Z,84.87
2018-03-14T23:06:08.015Z,84.97
2018-03-14T23:08:35.514Z,84.78
2018-03-14T23:11:02.975Z,84.67
2018-03-14T23:13:30.454Z,84.58
2018-03-14T23:15:57.916Z,84.70
2018-03-14T23:18:25.397Z,84.57
2018-03-14T23:20:52.861Z,84.45
2018-03-14T23:23:20.324Z,84.44
2018-03-14T23:25:47.803Z,84.24
2018-03-14T23:28:15.267Z,84.28
2018-03-14T23:30:42.748Z,84.29
2018-03-14T23:33:10.203Z,83.86
2018-03-14T23:35:37.698Z,83.86
2018-03-14T23:38:05.147Z,84.17
2018-03-14T23:40:32.628Z,84.72
2018-03-14T23:43:00.108Z,84.68
2018-03-14T23:45:27.601Z,84.44
2018-03-14T23:47:55.057Z,84.24
2018-03-14T23:50:22.564Z,84.17
2018-03-14T23:52:50.029Z,84.35
2018-03-14T23:55:17.512Z,84.37
2018-03-14T23:57:44.972Z,84.40
